createdAt,value
2022-09-21T00:01:36.432Z,12.33
2022-09-21T00:04:05.023Z,12.10
2022-09-21T00:06:35.084Z,7.63
2022-09-21T00:09:05.061Z,15.17
2022-09-21T00:11:35.948Z,14.17
2022-09-21T00:14:08.931Z,17.30
2022-09-21T00:16:41.682Z,20.63
2022-09-21T00:19:10.260Z,19.30
2022-09-21T00:21:38.273Z,9.53
2022-09-21T00:24:10.134Z,4.97
2022-09-21T00:26:39.579Z,7.60
2022-09-21T00:29:09.981Z,13.03
2022-09-21T00:31:37.781Z,13.10
2022-09-21T00:34:07.991Z,14.80
2022-09-21T00:36:35.943Z,10.27
2022-09-21T00:39:04.259Z,7.00
2022-09-21T00:41:36.084Z,9.53
2022-09-21T00:44:29.982Z,15.23
2022-09-21T00:47:03.854Z,8.20
2022-09-21T00:49:33.948Z,5.27
2022-09-21T00:52:06.699Z,8.00
2022-09-21T00:54:43.809Z,10.90
2022-09-21T00:57:11.445Z,13.90
2022-09-21T00:59:40.043Z,5.17
2022-09-21T01:02:09.827Z,4.63
2022-09-21T01:04:42.853Z,10.83
2022-09-21T01:07:18.405Z,14.83
2022-09-21T01:09:50.850Z,7.20
2022-09-21T01:12:45.024Z,7.93
2022-09-21T01:15:29.927Z,18.90
2022-09-21T01:18:12.270Z,12.17
2022-09-21T01:21:11.466Z,17.23
2022-09-21T01:23:52.459Z,3.97
2022-09-21T01:26:37.617Z,5.93
2022-09-21T01:29:23.904Z,3.60
2022-09-21T01:32:21.012Z,9.37
2022-09-21T01:35:11.255Z,4.53
2022-09-21T01:38:15.101Z,19.50
2022-09-21T01:40:47.144Z,8.70
2022-09-21T01:43:32.225Z,8.23
2022-09-21T01:46:04.275Z,4.90
2022-09-21T01:48:39.486Z,6.03
2022-09-21T01:51:10.899Z,4.53
2022-09-21T01:53:45.317Z,7.33
2022-09-21T01:56:30.875Z,12.20
2022-09-21T01:59:18.420Z,9.83
2022-09-21T02:01:55.363Z,4.30
2022-09-21T02:04:22.579Z,5.87
2022-09-21T02:06:51.217Z,4.93
2022-09-21T02:09:21.164Z,6.00
2022-09-21T02:11:48.377Z,8.80
2022-09-21T02:14:24.766Z,13.93
2022-09-21T02:17:03.569Z,6.00
2022-09-21T02:19:50.612Z,6.60
2022-09-21T02:22:46.320Z,17.07
2022-09-21T02:25:48.194Z,4.47
2022-09-21T02:28:27.443Z,8.40
2022-09-21T02:31:10.181Z,4.00
2022-09-21T02:33:57.639Z,4.30
2022-09-21T02:36:47.746Z,3.63
2022-09-21T02:39:44.970Z,3.53
2022-09-21T02:42:22.088Z,5.63
2022-09-21T02:45:10.323Z,5.27
2022-09-21T02:47:50.719Z,7.07
2022-09-21T02:50:45.014Z,20.47
2022-09-21T02:53:17.490Z,6.80
2022-09-21T02:55:46.869Z,8.73
2022-09-21T02:58:21.191Z,8.50
2022-09-21T03:00:50.798Z,3.70
2022-09-21T03:03:22.123Z,4.00
2022-09-21T03:05:52.743Z,8.20
2022-09-21T03:08:21.334Z,5.90
2022-09-21T03:10:50.920Z,4.53
2022-09-21T03:13:20.812Z,6.40
2022-09-21T03:15:48.033Z,8.50
2022-09-21T03:18:17.579Z,3.90
2022-09-21T03:20:48.624Z,8.47
2022-09-21T03:23:15.858Z,7.50
2022-09-21T03:25:46.346Z,4.20
2022-09-21T03:28:16.693Z,3.53
2022-09-21T03:30:45.775Z,8.43
2022-09-21T03:33:13.118Z,4.90
2022-09-21T03:35:43.243Z,8.60
2022-09-21T03:38:10.270Z,3.50
2022-09-21T03:40:39.965Z,8.50
2022-09-21T03:43:09.540Z,11.70
2022-09-21T03:45:38.157Z,4.20
2022-09-21T03:48:05.357Z,4.80
2022-09-21T03:50:35.278Z,5.47
2022-09-21T03:53:02.334Z,3.10
2022-09-21T03:55:29.964Z,3.57
2022-09-21T03:57:56.998Z,4.73
2022-09-21T04:00:24.014Z,9.23
2022-09-21T04:02:57.111Z,10.07
2022-09-21T04:05:27.800Z,4.23
2022-09-21T04:08:02.607Z,8.10
2022-09-21T04:10:33.357Z,4.83
2022-09-21T04:13:04.370Z,2.90
2022-09-21T04:15:33.731Z,10.47
2022-09-21T04:18:00.762Z,21.70
2022-09-21T04:20:30.409Z,6.53
2022-09-21T04:22:58.218Z,11.23
2022-09-21T04:25:26.866Z,5.47
2022-09-21T04:27:54.516Z,3.77
2022-09-21T04:30:33.229Z,3.60
2022-09-21T04:33:04.324Z,24.10
2022-09-21T04:35:34.025Z,7.40
2022-09-21T04:38:03.556Z,7.40
2022-09-21T04:40:33.135Z,7.13
2022-09-21T04:43:02.820Z,6.83
2022-09-21T04:45:32.638Z,4.00
2022-09-21T04:48:00.597Z,3.57
2022-09-21T04:50:28.253Z,6.13
2022-09-21T04:53:01.375Z,16.93
2022-09-21T04:55:31.728Z,8.90
2022-09-21T04:57:58.754Z,9.90
2022-09-21T05:00:29.630Z,19.07
2022-09-21T05:02:57.104Z,4.50
2022-09-21T05:05:34.604Z,12.10
2022-09-21T05:08:02.258Z,7.93
2022-09-21T05:10:30.608Z,3.50
2022-09-21T05:12:59.876Z,5.20
2022-09-21T05:15:29.900Z,3.80
2022-09-21T05:17:57.990Z,11.57
2022-09-21T05:20:25.362Z,16.50
2022-09-21T05:22:52.958Z,4.87
2022-09-21T05:25:20.597Z,8.03
2022-09-21T05:28:03.009Z,9.53
2022-09-21T05:30:30.734Z,7.80
2022-09-21T05:33:03.976Z,12.23
2022-09-21T05:36:37.867Z,3.93
2022-09-21T05:39:08.882Z,25.13
2022-09-21T05:41:36.708Z,16.23
2022-09-21T05:44:12.020Z,8.37
2022-09-21T05:46:44.192Z,3.47
2022-09-21T05:49:47.855Z,6.33
2022-09-21T05:52:39.697Z,6.33
2022-09-21T05:56:00.903Z,3.27
2022-09-21T05:59:20.298Z,7.07
2022-09-21T06:03:01.460Z,4.17
2022-09-21T06:05:36.688Z,4.93
2022-09-21T06:08:06.837Z,5.20
2022-09-21T06:10:35.648Z,8.50
2022-09-21T06:13:05.228Z,5.07
2022-09-21T06:15:41.252Z,4.27
2022-09-21T06:18:12.155Z,4.70
2022-09-21T06:20:41.547Z,5.50
2022-09-21T06:23:11.702Z,8.90
2022-09-21T06:25:41.312Z,21.77
2022-09-21T06:28:16.578Z,4.37
2022-09-21T06:30:49.561Z,10.50
2022-09-21T06:33:20.794Z,7.27
2022-09-21T06:36:01.832Z,8.40
2022-09-21T06:38:31.992Z,10.93
2022-09-21T06:41:06.796Z,10.87
2022-09-21T06:43:37.934Z,8.60
2022-09-21T06:46:05.971Z,16.87
2022-09-21T06:48:35.968Z,9.37
2022-09-21T06:51:10.805Z,8.33
2022-09-21T06:53:39.588Z,15.80
2022-09-21T06:56:12.787Z,4.87
2022-09-21T06:58:45.225Z,12.60
2022-09-21T07:01:19.273Z,5.20
2022-09-21T07:03:55.825Z,11.20
2022-09-21T07:06:32.055Z,7.57
2022-09-21T07:11:47.487Z,16.90
2022-09-21T07:14:19.920Z,6.67
2022-09-21T07:16:51.647Z,10.37
2022-09-21T07:19:21.195Z,8.67
2022-09-21T07:21:58.053Z,9.73
2022-09-21T07:24:25.290Z,21.07
2022-09-21T07:26:55.369Z,13.10
2022-09-21T07:29:25.643Z,6.07
2022-09-21T07:31:55.485Z,9.93
2022-09-21T07:34:22.778Z,13.10
2022-09-21T07:36:51.860Z,9.37
2022-09-21T07:39:19.166Z,10.43
2022-09-21T07:41:50.861Z,9.83
2022-09-21T07:44:22.698Z,13.63
2022-09-21T07:46:50.345Z,13.37
2022-09-21T07:49:23.059Z,11.90
2022-09-21T07:51:50.279Z,8.93
2022-09-21T07:54:17.433Z,11.37
2022-09-21T07:57:04.627Z,8.97
2022-09-21T07:59:33.039Z,8.50
2022-09-21T08:02:09.991Z,12.70
2022-09-21T08:04:57.031Z,11.40
2022-09-21T08:07:24.252Z,15.53
2022-09-21T08:09:51.497Z,8.43
2022-09-21T08:12:21.234Z,8.50
2022-09-21T08:14:49.687Z,4.80
2022-09-21T08:17:19.701Z,13.07
2022-09-21T08:19:47.980Z,9.57
2022-09-21T08:22:15.164Z,7.33
2022-09-21T08:24:46.295Z,15.03
2022-09-21T08:27:21.589Z,4.50
2022-09-21T08:29:51.973Z,10.03
2022-09-21T08:32:49.927Z,4.53
2022-09-21T08:35:19.251Z,6.93
2022-09-21T08:37:53.659Z,5.70
2022-09-21T08:40:24.165Z,5.57
2022-09-21T08:43:02.457Z,7.60
2022-09-21T08:45:47.998Z,3.87
2022-09-21T08:48:28.459Z,5.87
2022-09-21T08:51:02.914Z,7.00
2022-09-21T08:53:48.498Z,5.20
2022-09-21T08:56:22.664Z,22.17
2022-09-21T08:58:52.646Z,6.10
2022-09-21T09:01:39.718Z,9.07
2022-09-21T09:04:57.237Z,7.40
2022-09-21T09:08:09.209Z,3.60
2022-09-21T09:11:08.563Z,9.83
2022-09-21T09:14:21.886Z,3.17
2022-09-21T09:17:39.310Z,2.97
2022-09-21T09:20:40.280Z,2.20
2022-09-21T09:23:21.773Z,1.20
2022-09-21T09:25:55.027Z,1.83
2022-09-21T09:28:34.033Z,3.07
2022-09-21T09:31:31.814Z,0.90
2022-09-21T09:34:30.834Z,1.70
2022-09-21T09:37:16.383Z,1.27
2022-09-21T09:39:55.330Z,2.30
2022-09-21T09:42:46.257Z,1.00
2022-09-21T09:45:48.319Z,0.73
2022-09-21T09:48:54.428Z,1.27
2022-09-21T09:51:27.348Z,1.87
2022-09-21T09:54:06.877Z,2.73
2022-09-21T09:56:42.341Z,1.03
2022-09-21T09:59:30.947Z,1.60
2022-09-21T10:02:26.021Z,0.93
2022-09-21T10:05:09.180Z,1.20
2022-09-21T10:07:45.178Z,0.80
2022-09-21T10:10:39.340Z,1.07
2022-09-21T10:13:25.098Z,1.33
2022-09-21T10:15:55.170Z,0.70
2022-09-21T10:19:03.066Z,2.10
2022-09-21T10:21:48.800Z,1.07
2022-09-21T10:24:38.827Z,1.57
2022-09-21T10:27:14.167Z,1.90
2022-09-21T10:29:50.082Z,1.13
2022-09-21T10:32:23.152Z,1.80
2022-09-21T10:35:15.300Z,0.97
2022-09-21T10:37:54.037Z,4.00
2022-09-21T10:40:21.408Z,4.17
2022-09-21T10:42:58.692Z,0.97
2022-09-21T10:45:30.933Z,0.83
2022-09-21T10:48:19.176Z,3.17
2022-09-21T10:50:51.930Z,0.70
2022-09-21T10:53:32.001Z,0.60
2022-09-21T10:56:18.755Z,1.13
2022-09-21T10:59:24.481Z,2.20
2022-09-21T11:02:02.948Z,2.83
2022-09-21T11:04:48.461Z,1.30
2022-09-21T11:07:19.740Z,0.83
2022-09-21T11:09:59.008Z,1.70
2022-09-21T11:12:43.198Z,0.70
2022-09-21T11:15:34.036Z,0.60
2022-09-21T11:18:21.787Z,0.63
2022-09-21T11:20:59.673Z,0.70
2022-09-21T11:23:44.936Z,4.57
2022-09-21T11:26:33.154Z,0.70
2022-09-21T11:29:17.745Z,0.73
2022-09-21T11:32:23.122Z,0.97
2022-09-21T11:35:27.937Z,0.70
2022-09-21T11:38:33.706Z,0.50
2022-09-21T11:41:27.825Z,0.87
2022-09-21T11:44:17.390Z,2.93
2022-09-21T11:47:26.516Z,0.80
2022-09-21T11:50:30.902Z,3.30
2022-09-21T11:54:17.888Z,0.70
2022-09-21T11:56:54.475Z,1.00
2022-09-21T11:59:57.757Z,0.60
2022-09-21T12:02:31.596Z,0.57
2022-09-21T12:05:25.851Z,0.93
2022-09-21T12:07:58.888Z,1.80
2022-09-21T12:11:06.462Z,1.70
2022-09-21T12:13:45.478Z,0.97
2022-09-21T12:16:26.351Z,0.70
2022-09-21T12:19:12.145Z,0.70
2022-09-21T12:21:50.017Z,0.63
2022-09-21T12:24:45.430Z,0.77
2022-09-21T12:28:05.543Z,0.60
2022-09-21T12:30:34.586Z,0.50
2022-09-21T12:33:35.719Z,0.80
2022-09-21T12:36:17.128Z,9.67
2022-09-21T12:39:16.286Z,0.87
2022-09-21T12:42:02.116Z,0.70
2022-09-21T12:44:57.406Z,0.93
2022-09-21T12:47:30.046Z,0.93
2022-09-21T12:50:34.189Z,1.47
2022-09-21T12:53:04.696Z,0.60
2022-09-21T12:56:16.519Z,0.73
2022-09-21T12:59:23.050Z,1.13
2022-09-21T13:01:57.132Z,0.80
2022-09-21T13:04:45.770Z,1.53
2022-09-21T13:07:34.712Z,0.57
2022-09-21T13:10:31.709Z,0.93
2022-09-21T13:13:03.580Z,0.73
2022-09-21T13:15:47.708Z,0.60
2022-09-21T13:18:35.106Z,0.80
2022-09-21T13:21:20.419Z,1.70
2022-09-21T13:24:01.577Z,1.40
2022-09-21T13:26:43.493Z,4.07
2022-09-21T13:29:19.973Z,0.77
2022-09-21T13:32:01.076Z,0.67
2022-09-21T13:34:35.690Z,0.77
2022-09-21T13:37:11.683Z,4.30
2022-09-21T13:39:55.732Z,0.70
2022-09-21T13:42:47.602Z,4.57
2022-09-21T13:45:20.761Z,0.93
2022-09-21T13:47:59.036Z,0.87
2022-09-21T13:50:39.927Z,1.20
2022-09-21T13:53:21.340Z,2.00
2022-09-21T13:56:01.569Z,0.80
2022-09-21T13:58:36.771Z,0.80
2022-09-21T14:01:46.379Z,1.07
2022-09-21T14:04:36.791Z,1.37
2022-09-21T14:07:08.733Z,0.67
2022-09-21T14:09:51.681Z,1.27
2022-09-21T14:12:25.761Z,0.50
2022-09-21T14:15:20.193Z,0.90
2022-09-21T14:18:11.852Z,0.80
2022-09-21T14:20:39.766Z,1.43
2022-09-21T14:23:19.879Z,2.60
2022-09-21T14:25:54.162Z,0.87
2022-09-21T14:28:33.923Z,0.80
2022-09-21T14:31:08.514Z,0.70
2022-09-21T14:33:59.482Z,0.70
2022-09-21T14:36:50.364Z,3.90
2022-09-21T14:39:32.070Z,0.73
2022-09-21T14:42:15.814Z,4.00
2022-09-21T14:44:43.462Z,0.70
2022-09-21T14:47:28.838Z,0.80
2022-09-21T14:50:27.105Z,0.80
2022-09-21T14:53:52.272Z,1.50
2022-09-21T14:57:08.687Z,1.30
2022-09-21T15:00:14.943Z,0.90
2022-09-21T15:02:49.700Z,1.47
2022-09-21T15:05:35.209Z,2.50
2022-09-21T15:08:33.085Z,3.43
2022-09-21T15:11:07.469Z,1.00
2022-09-21T15:13:58.544Z,0.90
2022-09-21T15:16:38.827Z,3.93
2022-09-21T15:19:27.967Z,9.87
2022-09-21T15:22:17.616Z,3.33
2022-09-21T15:25:06.036Z,2.30
2022-09-21T15:27:38.166Z,3.00
2022-09-21T15:30:20.541Z,0.87
2022-09-21T15:33:04.865Z,1.37
2022-09-21T15:35:35.748Z,1.90
2022-09-21T15:38:02.806Z,3.60
2022-09-21T15:40:46.306Z,3.13
2022-09-21T15:43:17.076Z,0.70
2022-09-21T15:46:02.102Z,0.70
2022-09-21T15:48:42.293Z,1.10
2022-09-21T15:51:32.393Z,3.33
2022-09-21T15:54:20.003Z,0.80
2022-09-21T15:56:47.509Z,1.33
2022-09-21T15:59:21.043Z,2.33
2022-09-21T16:01:53.120Z,0.90
2022-09-21T16:04:23.580Z,1.17
2022-09-21T16:07:05.761Z,0.70
2022-09-21T16:09:45.103Z,0.87
2022-09-21T16:12:52.079Z,0.80
2022-09-21T16:15:32.008Z,2.20
2022-09-21T16:18:07.009Z,1.37
2022-09-21T16:20:50.778Z,0.80
2022-09-21T16:23:23.330Z,0.90
2022-09-21T16:26:01.240Z,1.37
2022-09-21T16:28:35.731Z,3.07
2022-09-21T16:31:35.489Z,0.90
2022-09-21T16:34:18.620Z,0.90
2022-09-21T16:36:51.729Z,2.30
2022-09-21T16:39:28.479Z,2.27
2022-09-21T16:42:01.920Z,3.93
2022-09-21T16:44:34.702Z,6.37
2022-09-21T16:47:03.679Z,2.10
2022-09-21T16:49:36.754Z,7.20
2022-09-21T16:52:04.147Z,1.33
2022-09-21T16:54:35.245Z,3.93
2022-09-21T16:57:06.176Z,2.50
2022-09-21T16:59:34.818Z,2.40
2022-09-21T17:02:05.154Z,8.10
2022-09-21T17:04:36.312Z,3.60
2022-09-21T17:07:06.976Z,7.13
2022-09-21T17:09:38.565Z,9.33
2022-09-21T17:12:08.866Z,6.87
2022-09-21T17:14:41.809Z,3.63
2022-09-21T17:17:23.154Z,2.73
2022-09-21T17:19:54.363Z,4.30
2022-09-21T17:22:22.132Z,6.23
2022-09-21T17:24:55.052Z,6.23
2022-09-21T17:27:29.191Z,4.10
2022-09-21T17:30:03.611Z,6.13
2022-09-21T17:32:38.464Z,5.40
2022-09-21T17:35:39.909Z,7.47
2022-09-21T17:38:11.275Z,6.73
2022-09-21T17:40:42.884Z,13.63
2022-09-21T17:44:00.363Z,6.90
2022-09-21T17:46:44.690Z,18.20
2022-09-21T17:49:12.201Z,9.73
2022-09-21T17:52:00.875Z,12.80
2022-09-21T17:54:27.981Z,19.97
2022-09-21T17:57:11.878Z,21.50
2022-09-21T17:59:42.609Z,60.83
2022-09-21T18:02:28.071Z,51.83
2022-09-21T18:05:04.229Z,29.57
2022-09-21T18:07:33.873Z,8.63
2022-09-21T18:10:01.159Z,10.30
2022-09-21T18:12:40.299Z,5.30
2022-09-21T18:15:46.456Z,6.37
2022-09-21T18:19:07.439Z,19.33
2022-09-21T18:21:45.676Z,21.00
2022-09-21T18:24:31.141Z,13.73
2022-09-21T18:26:59.732Z,11.20
2022-09-21T18:29:40.769Z,16.93
2022-09-21T18:32:40.048Z,7.80
2022-09-21T18:35:24.388Z,8.43
2022-09-21T18:38:21.027Z,7.87
2022-09-21T18:40:53.590Z,7.73
2022-09-21T18:43:35.150Z,6.30
2022-09-21T18:46:20.896Z,11.20
2022-09-21T18:48:59.999Z,6.40
2022-09-21T18:51:29.858Z,7.10
2022-09-21T18:53:58.241Z,6.80
2022-09-21T18:56:37.410Z,6.27
2022-09-21T18:59:09.291Z,4.23
2022-09-21T19:01:39.632Z,12.67
2022-09-21T19:04:07.727Z,4.57
2022-09-21T19:07:04.953Z,7.97
2022-09-21T19:10:09.716Z,9.40
2022-09-21T19:13:27.141Z,5.13
2022-09-21T19:16:21.468Z,4.00
2022-09-21T19:18:52.445Z,5.87
2022-09-21T19:22:07.223Z,4.67
2022-09-21T19:25:03.690Z,4.53
2022-09-21T19:28:05.256Z,12.00
2022-09-21T19:30:32.705Z,5.57
2022-09-21T19:33:03.946Z,6.63
2022-09-21T19:35:35.997Z,5.83
2022-09-21T19:38:06.735Z,12.10
2022-09-21T19:40:40.362Z,5.80
2022-09-21T19:43:53.198Z,6.70
2022-09-21T19:46:46.642Z,11.23
2022-09-21T19:49:19.847Z,13.70
2022-09-21T19:51:49.205Z,6.77
2022-09-21T19:54:38.553Z,7.13
2022-09-21T19:57:43.167Z,22.33
2022-09-21T20:00:17.665Z,7.83
2022-09-21T20:03:31.260Z,7.00
2022-09-21T20:06:21.518Z,14.13
2022-09-21T20:09:26.388Z,8.77
2022-09-21T20:12:03.716Z,12.67
2022-09-21T20:15:05.366Z,13.40
2022-09-21T20:18:02.772Z,8.47
2022-09-21T20:20:30.132Z,14.83
2022-09-21T20:23:09.448Z,9.60
2022-09-21T20:25:52.752Z,7.40
2022-09-21T20:28:22.475Z,11.97
2022-09-21T20:30:54.499Z,6.67
2022-09-21T20:33:23.318Z,7.97
2022-09-21T20:35:55.736Z,7.37
2022-09-21T20:38:23.250Z,6.03
2022-09-21T20:40:51.447Z,6.87
2022-09-21T20:43:19.829Z,13.97
2022-09-21T20:45:49.537Z,7.43
2022-09-21T20:48:20.297Z,6.53
2022-09-21T20:50:49.516Z,12.27
2022-09-21T20:53:17.624Z,18.73
2022-09-21T20:55:56.826Z,13.03
2022-09-21T20:58:25.165Z,7.63
2022-09-21T21:00:56.447Z,8.77
2022-09-21T21:03:28.188Z,5.03
2022-09-21T21:06:11.638Z,8.37
2022-09-21T21:08:38.643Z,6.20
2022-09-21T21:11:06.222Z,14.70
2022-09-21T21:13:35.719Z,10.10
2022-09-21T21:16:08.176Z,5.03
2022-09-21T21:18:45.843Z,23.83
2022-09-21T21:21:12.986Z,6.20
2022-09-21T21:24:00.690Z,9.00
2022-09-21T21:26:50.246Z,10.00
2022-09-21T21:29:14.794Z,5.87
2022-09-21T21:31:41.934Z,7.77
2022-09-21T21:34:11.305Z,7.50
2022-09-21T21:36:42.977Z,9.10
2022-09-21T21:39:13.463Z,10.27
2022-09-21T21:41:41.453Z,11.70
2022-09-21T21:44:15.756Z,7.47
2022-09-21T21:46:43.447Z,5.07
2022-09-21T21:49:10.500Z,8.00
2022-09-21T21:51:39.950Z,12.17
2022-09-21T21:54:07.390Z,7.10
2022-09-21T21:56:34.951Z,9.93
2022-09-21T21:59:02.054Z,9.27
2022-09-21T22:01:32.019Z,13.87
2022-09-21T22:04:01.786Z,14.00
2022-09-21T22:06:34.362Z,6.53
2022-09-21T22:09:03.045Z,5.47
2022-09-21T22:11:31.107Z,4.37
2022-09-21T22:14:01.222Z,7.60
2022-09-21T22:16:33.872Z,7.60
2022-09-21T22:19:04.282Z,5.77
2022-09-21T22:21:35.051Z,10.50
2022-09-21T22:24:04.992Z,5.80
2022-09-21T22:26:42.456Z,4.13
2022-09-21T22:33:18.971Z,6.30
2022-09-21T22:35:45.916Z,6.60
2022-09-21T22:38:13.653Z,6.83
2022-09-21T22:40:44.016Z,13.97
2022-09-21T22:43:11.346Z,9.17
2022-09-21T22:45:40.596Z,5.73
2022-09-21T22:48:09.261Z,5.67
2022-09-21T22:50:39.100Z,6.33
2022-09-21T22:53:05.957Z,6.23
2022-09-21T22:55:35.739Z,9.73
2022-09-21T22:58:03.440Z,5.67
2022-09-21T23:00:30.868Z,5.13
2022-09-21T23:02:58.390Z,5.53
2022-09-21T23:05:27.793Z,4.13
2022-09-21T23:07:56.595Z,6.20
2022-09-21T23:10:26.480Z,4.47
2022-09-21T23:12:54.247Z,6.90
2022-09-21T23:15:22.500Z,3.83
2022-09-21T23:17:51.626Z,4.83
2022-09-21T23:20:20.955Z,6.77
2022-09-21T23:22:53.278Z,6.07
2022-09-21T23:25:20.616Z,4.70
2022-09-21T23:27:47.764Z,5.77
2022-09-21T23:30:19.386Z,5.53
2022-09-21T23:32:47.020Z,4.03
2022-09-21T23:35:14.126Z,8.77
2022-09-21T23:37:41.087Z,4.47
2022-09-21T23:40:09.334Z,7.23
2022-09-21T23:42:36.531Z,8.33
2022-09-21T23:45:06.127Z,5.30
2022-09-21T23:47:33.169Z,3.67
2022-09-21T23:50:00.145Z,4.27
2022-09-21T23:52:30.322Z,4.53
2022-09-21T23:55:01.869Z,8.13
2022-09-21T23:57:28.850Z,6.60
2022-09-21T23:59:55.879Z,4.77
